EDT,Max TemperatureF,Mean TemperatureF,Min TemperatureF,Max Dew PointF,MeanDew PointF,Min DewpointF,Max Humidity, Mean Humidity, Min Humidity, Max Sea Level PressureIn, Mean Sea Level PressureIn, Min Sea Level PressureIn, Max VisibilityMiles, Mean VisibilityMiles, Min VisibilityMiles, Max Wind SpeedMPH, Mean Wind SpeedMPH, Max Gust SpeedMPH,PrecipitationIn, CloudCover, Events, WindDirDegrees
2011-10-1,73,68,62,66,63,59,94,88,78,29.69,29.64,29.57,10,9,1,14,8,17,0.25,5,,154
2011-10-2,66,62,55,63,58,54,94,88,78,29.91,29.82,29.77,10,9,2,17,8,23,0.01,6,,3
2011-10-3,68,58,48,57,50,45,94,75,49,30.10,30.03,29.93,10,7,0,14,3,17,0.03,5,,175
2011-10-4,64,62,59,57,55,52,88,81,73,30.02,29.92,29.84,10,10,4,18,10,26,0.23,6,,33
2011-10-5,62,60,57,54,50,46,88,73,55,30.00,29.91,29.84,10,10,4,23,18,31,0.02,6,,347
2011-10-6,57,52,44,36,33,30,66,46,36,30.28,30.23,30.20,10,10,1,23,15,31,0.00,0,,335
2011-10-7,55,50,46,37,33,30,66,48,41,30.47,30.42,30.34,10,10,10,15,9,23,0.00,0,,13
2011-10-8,73,63,53,57,49,45,77,63,50,30.42,30.39,30.33,10,10,10,15,11,20,0.00,0,,244
2011-10-9,78,68,57,57,55,52,88,67,44,30.32,30.29,30.22,10,10,10,12,8,16,0.00,0,,274
2011-10-10,75,68,60,59,56,54,82,70,57,30.20,30.14,30.07,10,10,10,12,8,17,0.00,0,,295
2011-10-11,64,57,48,50,48,43,82,64,56,30.25,30.21,30.15,10,10,10,15,9,16,0.00,0,,65
2011-10-12,60,56,51,54,49,43,88,74,59,30.25,30.19,30.10,10,10,6,15,8,20,0.06,5,,90
2011-10-13,68,62,57,64,59,54,94,90,82,30.06,29.89,29.76,10,5,0,17,13,23,1.33,8,,105
2011-10-14,69,64,60,70,61,57,100,92,88,29.80,29.67,29.44,10,4,0,14,6,18,0.24,8,,122
2011-10-15,64,60,57,59,50,46,88,67,56,29.65,29.56,29.37,10,10,10,30,23,39,0.00,1,,229
2011-10-16,64,60,55,45,42,39,63,51,42,29.81,29.76,29.71,10,10,10,24,20,36,0.00,1,,248
2011-10-17,64,60,57,55,46,37,82,60,37,29.74,29.67,29.60,10,10,10,23,16,30,0.00,3,,251
2011-10-18,66,60,55,52,45,41,77,58,40,29.92,29.84,29.75,10,10,10,20,13,24,0.00,2,,229
2011-10-19,60,56,53,55,53,48,94,85,77,29.98,29.91,29.69,10,8,2,24,9,33,0.63,5,,88
2011-10-20,71,66,60,68,61,48,100,84,63,29.64,29.55,29.50,10,7,2,30,14,43,0.78,7,,200
2011-10-21,62,58,55,48,45,43,72,61,48,29.92,29.82,29.71,10,10,10,25,18,30,0.00,1,,238
2011-10-22,60,55,50,46,44,39,76,65,51,30.04,30.00,29.96,10,10,10,12,8,,0.00,6,,264
2011-10-23,57,50,42,45,43,36,81,69,62,30.13,30.10,30.06,10,10,10,12,7,,0.00,0,,327
2011-10-24,60,48,37,46,39,30,87,68,48,30.16,30.09,29.97,10,10,10,9,4,,0.00,1,,200
2011-10-25,59,56,53,50,43,36,82,65,47,29.94,29.89,29.84,10,10,10,22,13,30,0.00,3,,294
2011-10-26,51,50,48,43,38,32,82,66,47,29.98,29.90,29.79,10,10,10,25,13,30,0.00,7,,297
2011-10-27,51,46,42,45,42,36,87,81,71,29.79,29.71,29.64,10,8,2,25,9,33,0.53,8,,51
2011-10-28,46,44,41,36,29,25,81,56,43,30.23,30.06,29.82,10,10,8,24,18,32,0.02,5,,331
2011-10-29,48,45,41,36,30,25,81,58,46,30.26,30.15,29.87,10,9,3,29,11,40,0.49,7,,53
2011-10-30,46,44,41,39,33,27,93,67,49,30.27,29.93,29.51,10,8,3,43,30,55,0.44,6,,343
2011-10-31,51,48,44,36,31,28,71,55,44,30.43,30.38,30.29,10,10,10,16,10,23,0.00,0,,316